GAU weather

Lokpriya Gopinath Bordoloi International Airport
Guwahati, Assam, India

Public forecast

Using degrees Celsius for public forecast. Weather courtesy of forecast.io.

METAR (pilot weather report)

Retrieved 2019/06/25 16:30 UTC (28 minutes ago):

VEGT 251630Z 01003KT 4000 TS SCT018 FEW025CB BKN100 30/29 Q1002 NOSIG

TAF (pilot weather forecast)

Forecast is more than 12 hours old.

Retrieved 2016/03/24 00:45 UTC (3 years ago):

TAF VEGT 242300Z 2500/2606 00000KT 2000 BR FEW020 BECMG 2503/2506 05008KT 4000 HZ BECMG 2506/2509 5000 HZ BECMG 2512/2514 00000KT 4000 HZ FEW020 SCT100 BECMG 2515/2518 2500 HZ BECMG 2603/2606 05008KT 4000 HZ FEW020=